Time;durP1;ratioP1;P1;durP2;ratioP2;P2;SDS_P1;SDS_P2;PMS_P1;PMS_P2;Temp;Humidity;BMP_temperature;BMP_pressure;BME280_temperature;BME280_humidity;BME280_pressure;Samples;Min_cycle;Max_cycle;Signal;HPM_P1;HPM_P2
2024/04/04 00:00:45;;;;;;;9.63;6.38;;;;;;;9.50;100.00;100342.59;10074973;28;20043;-74
2024/04/04 00:05:41;;;;;;;10.88;7.25;;;;;;;9.46;100.00;100347.88;10039756;28;20031;-73
2024/04/04 00:10:37;;;;;;;8.90;6.40;;;;;;;9.41;100.00;100345.31;10086958;28;20047;-73
2024/04/04 00:15:38;;;;;;;12.45;6.78;;;;;;;9.36;100.00;100350.91;10069739;28;20047;-72
2024/04/04 00:20:40;;;;;;;12.43;7.00;;;;;;;9.34;100.00;100350.44;10055266;28;20043;-72
2024/04/04 00:25:36;;;;;;;11.75;6.97;;;;;;;9.35;100.00;100356.69;10086381;28;20464;-72
2024/04/04 00:30:32;;;;;;;13.25;9.35;;;;;;;9.43;100.00;100364.88;10092959;28;20067;-72
2024/04/04 00:35:27;;;;;;;12.07;7.70;;;;;;;9.50;100.00;100371.81;10100141;28;20049;-72
2024/04/04 00:40:23;;;;;;;15.38;9.18;;;;;;;9.53;100.00;100374.69;10070808;28;20050;-70
2024/04/04 00:45:20;;;;;;;14.68;8.50;;;;;;;9.60;100.00;100379.69;10036027;28;20532;-72
2024/04/04 00:50:16;;;;;;;11.60;9.00;;;;;;;9.59;100.00;100386.28;10079274;28;20519;-71
2024/04/04 00:55:12;;;;;;;13.43;9.60;;;;;;;9.57;100.00;100396.72;10068501;28;20051;-71
2024/04/04 01:00:08;;;;;;;15.43;9.25;;;;;;;9.57;100.00;100402.16;10087707;28;20416;-70
2024/04/04 01:05:04;;;;;;;13.98;9.50;;;;;;;9.59;100.00;100397.19;10045572;28;20079;-70
2024/04/04 01:10:04;;;;;;;14.48;10.15;;;;;;;9.56;100.00;100395.09;10068932;28;20083;-70
2024/04/04 01:15:00;;;;;;;17.02;10.38;;;;;;;9.57;100.00;100410.34;10068162;28;20085;-73
2024/04/04 01:19:55;;;;;;;11.40;8.75;;;;;;;9.47;100.00;100414.19;10072243;28;20043;-72
2024/04/04 01:24:51;;;;;;;15.05;9.68;;;;;;;9.37;100.00;100407.09;10086140;28;20047;-71
2024/04/04 01:29:46;;;;;;;14.25;8.60;;;;;;;9.35;100.00;100401.16;10035929;28;20039;-71
2024/04/04 01:34:42;;;;;;;17.30;9.90;;;;;;;9.37;100.00;100398.91;10078810;28;20129;-71
2024/04/04 01:39:37;;;;;;;17.13;10.82;;;;;;;9.39;100.00;100402.13;10097137;28;20047;-72
2024/04/04 01:44:33;;;;;;;13.95;10.88;;;;;;;9.37;100.00;100398.91;10082624;28;20051;-71
2024/04/04 01:49:28;;;;;;;17.65;11.10;;;;;;;9.33;100.00;100387.03;10048410;29;20043;-71
2024/04/04 01:54:24;;;;;;;19.92;10.30;;;;;;;9.31;100.00;100392.00;10077924;28;20195;-72
2024/04/04 01:59:19;;;;;;;17.13;10.60;;;;;;;9.30;100.00;100382.19;10093267;28;20039;-71
2024/04/04 02:04:15;;;;;;;17.85;8.70;;;;;;;9.31;100.00;100388.47;10080453;28;20043;-71
2024/04/04 02:09:10;;;;;;;15.32;8.95;;;;;;;9.26;100.00;100381.25;10091168;28;20043;-72
2024/04/04 02:14:09;;;;;;;16.25;8.52;;;;;;;9.18;100.00;100380.06;10080209;28;20055;-72
2024/04/04 02:19:05;;;;;;;16.30;8.07;;;;;;;9.12;100.00;100386.00;10076509;28;20043;-73
2024/04/04 02:24:01;;;;;;;15.18;8.02;;;;;;;9.14;100.00;100405.56;10087427;28;20051;-73
2024/04/04 02:28:56;;;;;;;11.70;8.18;;;;;;;9.14;100.00;100409.09;10055391;28;20054;-72
2024/04/04 02:33:52;;;;;;;14.32;7.82;;;;;;;9.14;100.00;100400.13;10084594;28;20043;-71
2024/04/04 02:38:47;;;;;;;13.02;7.35;;;;;;;9.08;100.00;100404.13;10047559;28;20054;-71
2024/04/04 02:43:43;;;;;;;11.90;6.20;;;;;;;9.12;100.00;100410.53;10056233;28;20086;-70
2024/04/04 02:48:38;;;;;;;12.05;6.35;;;;;;;9.14;100.00;100416.47;10047298;28;20083;-72
2024/04/04 02:53:34;;;;;;;10.57;6.60;;;;;;;9.14;100.00;100441.81;10053397;28;20043;-73
2024/04/04 02:58:30;;;;;;;15.38;5.60;;;;;;;9.13;100.00;100431.25;10068270;28;20035;-72
2024/04/04 03:03:25;;;;;;;10.15;5.78;;;;;;;9.15;100.00;100442.66;10097153;28;20055;-73
2024/04/04 03:08:21;;;;;;;10.10;5.35;;;;;;;9.14;100.00;100441.03;10046968;28;20047;-72
2024/04/04 03:13:16;;;;;;;12.43;5.68;;;;;;;9.17;100.00;100454.06;10057692;28;20035;-71
2024/04/04 03:18:12;;;;;;;12.20;5.35;;;;;;;9.14;100.00;100450.00;10053321;28;20094;-71
2024/04/04 03:23:07;;;;;;;12.55;7.40;;;;;;;9.14;100.00;100460.91;10055157;28;20035;-70
2024/04/04 03:28:03;;;;;;;12.77;4.65;;;;;;;9.17;100.00;100460.31;10072477;28;20057;-69
2024/04/04 03:32:59;;;;;;;13.40;5.25;;;;;;;9.18;100.00;100458.38;10075574;28;20070;-70
2024/04/04 03:37:54;;;;;;;16.55;7.38;;;;;;;9.15;100.00;100450.84;10074070;28;20050;-69
2024/04/04 03:42:50;;;;;;;11.85;5.50;;;;;;;9.14;100.00;100449.22;10068437;28;20045;-70
2024/04/04 03:47:45;;;;;;;10.43;4.50;;;;;;;9.13;100.00;100453.06;10071307;28;20043;-70
2024/04/04 03:52:41;;;;;;;14.05;6.70;;;;;;;9.15;100.00;100456.28;10064712;28;20051;-71
2024/04/04 03:57:37;;;;;;;12.88;5.85;;;;;;;9.13;100.00;100453.06;10070721;28;20039;-72
2024/04/04 04:02:32;;;;;;;11.02;4.75;;;;;;;9.14;100.00;100451.94;10083696;28;20043;-70
2024/04/04 04:07:28;;;;;;;10.80;4.45;;;;;;;9.11;100.00;100460.75;10090736;28;20053;-71
2024/04/04 04:12:23;;;;;;;10.98;4.80;;;;;;;9.06;100.00;100465.22;10092063;28;20051;-71
2024/04/04 04:17:19;;;;;;;9.68;4.80;;;;;;;9.10;100.00;100470.88;10086852;28;20050;-71
2024/04/04 04:22:14;;;;;;;8.93;4.38;;;;;;;9.09;100.00;100463.00;10105628;28;20031;-71
2024/04/04 04:27:11;;;;;;;8.18;4.57;;;;;;;9.04;100.00;100467.47;10070778;28;20051;-72
2024/04/04 04:32:07;;;;;;;14.48;4.93;;;;;;;8.99;100.00;100470.31;10080850;28;20093;-72
2024/04/04 04:37:07;;;;;;;13.73;5.22;;;;;;;8.84;100.00;100468.00;10089635;28;20047;-71
2024/04/04 04:42:03;;;;;;;8.27;4.30;;;;;;;8.76;100.00;100476.94;10082754;28;20078;-70
2024/04/04 04:46:59;;;;;;;10.32;4.50;;;;;;;8.67;100.00;100478.78;10069322;28;20459;-72
2024/04/04 04:51:54;;;;;;;12.02;4.28;;;;;;;8.66;100.00;100478.00;10066221;28;20053;-71
2024/04/04 04:56:50;;;;;;;9.20;4.20;;;;;;;8.75;100.00;100475.31;10046880;28;20048;-71
2024/04/04 05:01:45;;;;;;;11.82;4.30;;;;;;;8.84;100.00;100473.44;10076623;28;20578;-70
2024/04/04 05:06:46;;;;;;;9.27;3.75;;;;;;;8.93;100.00;100481.69;10080530;28;20124;-73
2024/04/04 05:11:42;;;;;;;6.97;3.65;;;;;;;8.95;100.00;100474.78;10070543;28;20133;-70
2024/04/04 05:16:46;;;;;;;8.63;3.80;;;;;;;8.98;100.00;100463.28;10068967;28;20086;-71
2024/04/04 05:21:41;;;;;;;11.80;4.57;;;;;;;9.08;100.00;100472.31;10065803;28;20099;-72
2024/04/04 05:26:37;;;;;;;7.28;4.00;;;;;;;9.09;100.00;100474.69;10069270;28;20150;-71
2024/04/04 05:31:32;;;;;;;11.05;4.30;;;;;;;9.12;100.00;100473.25;10088471;28;20043;-70
2024/04/04 05:36:28;;;;;;;10.77;4.35;;;;;;;9.13;100.00;100481.16;10074560;28;20051;-69
2024/04/04 05:41:24;;;;;;;8.80;3.90;;;;;;;9.16;100.00;100479.72;10092477;28;20625;-69
2024/04/04 05:46:20;;;;;;;10.23;4.28;;;;;;;9.12;100.00;100482.28;10063654;28;20608;-72
2024/04/04 05:51:17;;;;;;;6.63;3.42;;;;;;;9.19;100.00;100479.06;10063447;28;20082;-71
2024/04/04 05:56:12;;;;;;;8.18;3.40;;;;;;;9.17;100.00;100486.78;10085392;28;20078;-72
2024/04/04 06:01:08;;;;;;;4.22;3.28;;;;;;;9.08;100.00;100484.00;10075718;28;20039;-71
2024/04/04 06:06:03;;;;;;;7.68;3.65;;;;;;;9.01;100.00;100484.47;10075826;28;20039;-71
2024/04/04 06:10:59;;;;;;;8.82;3.30;;;;;;;9.06;100.00;100484.31;10064640;28;20470;-72
2024/04/04 06:15:55;;;;;;;6.97;3.60;;;;;;;8.98;100.00;100489.72;10086087;28;20039;-71
2024/04/04 06:20:51;;;;;;;9.48;4.22;;;;;;;9.01;100.00;100484.47;10087405;28;20070;-70
2024/04/04 06:25:46;;;;;;;12.18;4.25;;;;;;;8.94;100.00;100475.91;10070728;28;20046;-71
2024/04/04 06:30:42;;;;;;;13.65;3.70;;;;;;;8.94;100.00;100489.56;10087471;28;20174;-72
2024/04/04 06:35:37;;;;;;;9.70;3.70;;;;;;;9.07;100.00;100476.94;10077828;28;20055;-71
2024/04/04 06:40:39;;;;;;;7.93;3.30;;;;;;;9.20;100.00;100453.41;10076549;28;20080;-71
2024/04/04 06:45:35;;;;;;;6.63;3.28;;;;;;;9.31;100.00;100452.03;10075575;28;20113;-72
2024/04/04 06:50:30;;;;;;;8.20;3.50;;;;;;;9.43;100.00;100446.75;10070119;28;20117;-70
2024/04/04 06:55:26;;;;;;;6.10;3.13;;;;;;;9.46;100.00;100432.47;10063974;28;21158;-72
2024/04/04 07:00:22;;;;;;;5.35;2.75;;;;;;;9.43;100.00;100441.31;10088660;28;21752;-71
2024/04/04 07:05:18;;;;;;;7.72;3.50;;;;;;;9.36;100.00;100424.59;10067806;28;20043;-72
2024/04/04 07:10:13;;;;;;;6.72;2.95;;;;;;;9.28;100.00;100430.81;10065741;28;20090;-71
2024/04/04 07:15:09;;;;;;;7.03;3.20;;;;;;;9.32;100.00;100434.53;10073922;28;20076;-72
2024/04/04 07:20:05;;;;;;;6.32;3.75;;;;;;;9.31;100.00;100432.94;10070930;28;20059;-70
2024/04/04 07:25:01;;;;;;;7.55;3.75;;;;;;;9.36;100.00;100424.59;10068479;28;20071;-72
2024/04/04 07:29:56;;;;;;;6.90;3.25;;;;;;;9.52;100.00;100410.50;10067797;28;20445;-72
2024/04/04 07:34:52;;;;;;;8.80;3.10;;;;;;;9.84;100.00;100426.47;10068312;28;20488;-73
2024/04/04 07:39:47;;;;;;;7.57;3.65;;;;;;;10.16;100.00;100410.69;10069746;28;20066;-72
2024/04/04 07:44:43;;;;;;;8.38;3.30;;;;;;;10.28;100.00;100402.69;10069425;28;20831;-72
2024/04/04 07:49:39;;;;;;;9.50;4.10;;;;;;;10.34;100.00;100386.13;10070293;28;20085;-72
2024/04/04 07:54:35;;;;;;;6.78;3.58;;;;;;;10.46;100.00;100389.00;10064117;28;20529;-73
2024/04/04 07:59:30;;;;;;;9.32;3.88;;;;;;;10.47;100.00;100379.69;10066380;28;20503;-72
2024/04/04 08:04:26;;;;;;;8.15;3.75;;;;;;;10.39;100.00;100383.22;10082999;28;20043;-71
2024/04/04 08:09:23;;;;;;;6.10;3.53;;;;;;;10.30;100.00;100384.06;10086012;28;20419;-71
2024/04/04 08:14:20;;;;;;;5.38;3.72;;;;;;;10.15;100.00;100389.97;10069978;28;20069;-72
2024/04/04 08:19:16;;;;;;;8.68;4.10;;;;;;;10.01;100.00;100378.44;10087765;28;20097;-72
2024/04/04 08:24:13;;;;;;;5.95;3.47;;;;;;;10.09;100.00;100374.88;10082411;28;20035;-72
2024/04/04 08:29:09;;;;;;;9.50;3.63;;;;;;;10.04;100.00;100383.22;10028437;28;20070;-72
2024/04/04 08:34:05;;;;;;;5.80;3.42;;;;;;;10.02;100.00;100385.47;10083392;28;20531;-72
2024/04/04 08:39:02;;;;;;;5.93;3.67;;;;;;;9.98;100.00;100379.06;10058836;28;20044;-72
2024/04/04 08:43:59;;;;;;;5.75;3.58;;;;;;;10.06;100.00;100372.78;10070620;28;20459;-72
2024/04/04 08:48:56;;;;;;;6.07;3.38;;;;;;;10.02;100.00;100364.44;10089660;28;20791;-72
2024/04/04 08:53:52;;;;;;;7.22;3.90;;;;;;;9.99;100.00;100356.09;10090356;28;20087;-72
2024/04/04 08:58:48;;;;;;;8.95;3.47;;;;;;;9.97;100.00;100350.16;10070985;28;20093;-73
2024/04/04 09:03:43;;;;;;;5.53;3.45;;;;;;;9.95;100.00;100347.72;10091796;28;20058;-72
2024/04/04 09:08:39;;;;;;;6.15;3.33;;;;;;;9.81;100.00;100347.88;10089690;28;20051;-72
2024/04/04 09:13:34;;;;;;;9.68;3.00;;;;;;;9.81;100.00;100350.63;10074736;28;20045;-69
2024/04/04 09:18:30;;;;;;;5.45;2.65;;;;;;;9.80;100.00;100354.50;10047081;28;20050;-70
2024/04/04 09:23:26;;;;;;;5.80;2.70;;;;;;;9.76;100.00;100350.00;10047029;28;20091;-70
2024/04/04 09:28:21;;;;;;;10.48;3.40;;;;;;;9.60;100.00;100350.47;10060017;28;20081;-72
2024/04/04 09:33:18;;;;;;;12.52;2.95;;;;;;;9.63;100.00;100340.81;10085069;28;20055;-70
2024/04/04 09:38:16;;;;;;;7.63;2.75;;;;;;;9.54;100.00;100338.09;10073308;28;20078;-71
2024/04/04 09:43:11;;;;;;;4.97;2.53;;;;;;;9.50;100.00;100334.41;10109038;28;20071;-70
2024/04/04 09:48:07;;;;;;;6.70;2.35;;;;;;;9.45;100.00;100335.38;10078634;28;20472;-71
2024/04/04 09:53:04;;;;;;;5.75;2.03;;;;;;;9.41;100.00;100315.28;10077520;28;20039;-71
2024/04/04 09:58:00;;;;;;;11.77;3.17;;;;;;;9.44;100.00;100309.19;10073099;28;20090;-70
2024/04/04 10:02:56;;;;;;;4.30;2.42;;;;;;;9.42;100.00;100303.28;10092998;28;20054;-70
2024/04/04 10:07:52;;;;;;;7.05;2.42;;;;;;;9.37;100.00;100300.66;10082571;28;20070;-70
2024/04/04 10:12:52;;;;;;;4.53;2.05;;;;;;;9.32;100.00;100297.31;10070013;28;20039;-71
2024/04/04 10:17:50;;;;;;;6.90;2.85;;;;;;;9.37;100.00;100280.78;10049707;28;20480;-71
2024/04/04 10:22:55;;;;;;;4.60;2.03;;;;;;;9.44;100.00;100278.38;10062016;28;20067;-69
2024/04/04 10:28:01;;;;;;;8.55;3.30;;;;;;;9.41;100.00;100263.44;10088561;28;20110;-70
2024/04/04 10:33:07;;;;;;;5.60;1.90;;;;;;;9.38;100.00;100253.19;10070190;28;20074;-70
2024/04/04 10:38:07;;;;;;;7.63;2.00;;;;;;;9.49;100.00;100237.28;10060496;28;20039;-70
2024/04/04 10:43:03;;;;;;;8.25;2.50;;;;;;;9.56;100.00;100223.97;10064112;28;20082;-70
2024/04/04 10:48:00;;;;;;;8.57;2.08;;;;;;;9.65;100.00;100213.00;10076001;28;20096;-71
2024/04/04 10:52:56;;;;;;;7.63;1.90;;;;;;;9.68;100.00;100206.94;10081236;28;20154;-71
2024/04/04 10:57:55;;;;;;;8.63;2.10;;;;;;;9.74;100.00;100200.16;10067188;28;20075;-70
2024/04/04 11:02:50;;;;;;;4.22;1.50;;;;;;;9.73;100.00;100184.91;10072972;28;20457;-71
2024/04/04 11:07:46;;;;;;;5.25;1.80;;;;;;;9.77;100.00;100185.88;10077836;28;20162;-71
2024/04/04 11:12:43;;;;;;;8.05;2.22;;;;;;;9.70;100.00;100166.47;10083858;28;20475;-71
2024/04/04 11:17:40;;;;;;;8.20;2.67;;;;;;;9.78;100.00;100162.09;10090423;28;20533;-71
2024/04/04 11:22:36;;;;;;;5.40;2.33;;;;;;;9.90;100.00;100149.34;10080552;28;20073;-71
2024/04/04 11:27:38;;;;;;;6.13;1.85;;;;;;;9.89;100.00;100136.84;10085159;28;20424;-71
2024/04/04 11:32:34;;;;;;;8.65;2.78;;;;;;;9.84;100.00;100139.75;10091576;28;20070;-71
2024/04/04 11:37:30;;;;;;;5.38;2.22;;;;;;;9.90;100.00;100122.03;10071039;28;20075;-71
2024/04/04 11:42:26;;;;;;;5.20;2.13;;;;;;;9.94;100.00;100121.41;10084165;28;20083;-71
2024/04/04 11:47:22;;;;;;;7.03;2.13;;;;;;;9.97;100.00;100104.34;10072907;28;20071;-71
2024/04/04 11:52:17;;;;;;;3.00;1.35;;;;;;;10.00;100.00;100093.59;10071958;28;20431;-73
2024/04/04 11:57:13;;;;;;;4.85;1.65;;;;;;;10.04;100.00;100099.19;10072577;28;20075;-72
2024/04/04 12:02:09;;;;;;;6.22;2.20;;;;;;;10.11;100.00;100083.06;10062505;28;20042;-71
2024/04/04 12:07:04;;;;;;;3.10;1.77;;;;;;;10.09;100.00;100090.78;10071394;28;20410;-72
2024/04/04 12:12:00;;;;;;;3.75;1.38;;;;;;;10.21;100.00;100071.78;10069171;28;20062;-73
2024/04/04 12:16:56;;;;;;;3.70;1.40;;;;;;;10.26;100.00;100066.13;10061672;28;20047;-71
2024/04/04 12:21:52;;;;;;;4.85;1.55;;;;;;;10.41;100.00;100069.41;10050479;28;20179;-70
2024/04/04 12:26:48;;;;;;;3.50;1.75;;;;;;;10.68;100.00;100063.41;10057794;28;20051;-71
2024/04/04 12:31:43;;;;;;;4.43;2.30;;;;;;;10.82;100.00;100067.81;10081185;28;20098;-71
2024/04/04 12:36:39;;;;;;;4.82;2.15;;;;;;;11.02;100.00;100072.44;10078373;28;20138;-71
2024/04/04 12:41:35;;;;;;;5.00;2.55;;;;;;;11.06;100.00;100067.91;10068887;28;20043;-74
2024/04/04 12:46:32;;;;;;;5.50;2.78;;;;;;;11.20;100.00;100077.75;10084121;28;20134;-71
2024/04/04 12:51:27;;;;;;;5.13;2.58;;;;;;;11.40;100.00;100065.94;10071895;28;20092;-71
2024/04/04 12:56:23;;;;;;;5.88;2.13;;;;;;;11.58;100.00;100067.34;10084142;28;20510;-70
2024/04/04 13:01:19;;;;;;;4.25;2.10;;;;;;;11.47;100.00;100082.63;10072979;28;20352;-71
2024/04/04 13:06:14;;;;;;;8.27;2.28;;;;;;;11.54;100.00;100082.84;10067354;28;20047;-73
2024/04/04 13:11:11;;;;;;;7.88;2.13;;;;;;;11.53;100.00;100091.41;10086285;28;20047;-72
2024/04/04 13:16:06;;;;;;;4.00;2.05;;;;;;;11.37;100.00;100093.97;10085083;28;20462;-73
2024/04/04 13:21:02;;;;;;;3.20;1.60;;;;;;;11.40;100.00;100109.75;10071963;28;20047;-71
2024/04/04 13:25:58;;;;;;;6.00;2.47;;;;;;;11.45;100.00;100111.47;10097745;28;20066;-71
2024/04/04 13:30:53;;;;;;;2.75;1.80;;;;;;;11.31;100.00;100114.50;10090059;28;20522;-70
2024/04/04 13:35:51;;;;;;;3.25;1.80;;;;;;;11.27;100.00;100121.78;10068473;28;20047;-70
2024/04/04 13:40:47;;;;;;;3.33;1.83;;;;;;;11.19;100.00;100123.47;10072549;28;21094;-70
2024/04/04 13:45:44;;;;;;;4.03;1.90;;;;;;;11.10;100.00;100120.81;10080300;28;20821;-70
2024/04/04 13:50:39;;;;;;;3.15;1.73;;;;;;;11.04;100.00;100113.16;10090984;28;20511;-70
2024/04/04 13:55:35;;;;;;;3.33;1.75;;;;;;;11.12;100.00;100110.34;10091328;28;20047;-71
2024/04/04 14:00:30;;;;;;;4.15;2.15;;;;;;;11.24;100.00;100097.84;10093853;28;20051;-71
2024/04/04 14:05:28;;;;;;;5.40;1.70;;;;;;;11.21;100.00;100112.19;10094366;28;20051;-71
2024/04/04 14:10:24;;;;;;;2.75;1.58;;;;;;;11.06;100.00;100122.63;10091997;28;20074;-71
2024/04/04 14:15:19;;;;;;;2.90;1.50;;;;;;;10.90;100.00;100111.47;10070267;28;20051;-70
2024/04/04 14:20:15;;;;;;;3.10;1.33;;;;;;;10.80;100.00;100124.78;10052907;28;20044;-73
2024/04/04 14:25:10;;;;;;;4.15;1.35;;;;;;;10.71;100.00;100125.63;10070314;28;20047;-71
2024/04/04 14:30:07;;;;;;;2.65;1.30;;;;;;;10.71;100.00;100119.38;10070438;28;20485;-70
2024/04/04 14:35:03;;;;;;;3.28;1.58;;;;;;;10.74;100.00;100133.19;10067013;28;20642;-70
2024/04/04 14:39:58;;;;;;;3.42;1.45;;;;;;;10.81;100.00;100143.56;10071527;28;20062;-70
2024/04/04 14:44:54;;;;;;;4.18;1.92;;;;;;;10.91;100.00;100145.13;10085163;28;20074;-70
2024/04/04 14:49:49;;;;;;;3.58;1.40;;;;;;;10.87;100.00;100146.91;10085730;28;20049;-70
2024/04/04 14:54:45;;;;;;;2.58;1.20;;;;;;;10.82;100.00;100149.84;10066882;28;20053;-70
2024/04/04 14:59:41;;;;;;;2.70;1.35;;;;;;;10.70;100.00;100159.59;10089640;28;20118;-71
2024/04/04 15:04:36;;;;;;;3.00;1.30;;;;;;;10.72;100.00;100167.44;10068312;28;20051;-72
2024/04/04 15:09:32;;;;;;;3.95;1.00;;;;;;;10.77;100.00;100163.72;10097923;28;20054;-73
2024/04/04 15:14:27;;;;;;;4.60;1.40;;;;;;;10.66;100.00;100180.50;10081324;28;20392;-73
2024/04/04 15:19:23;;;;;;;3.33;1.40;;;;;;;10.79;100.00;100188.78;10086352;28;20130;-73
2024/04/04 15:24:18;;;;;;;6.03;1.30;;;;;;;11.02;100.00;100186.53;10077742;28;20043;-73
2024/04/04 15:29:15;;;;;;;3.67;1.33;;;;;;;11.11;100.00;100199.00;10086667;28;20126;-73
2024/04/04 15:34:11;;;;;;;4.50;1.30;;;;;;;10.81;100.00;100222.06;10089615;28;20066;-72
2024/04/04 15:39:07;;;;;;;4.07;1.70;;;;;;;10.67;100.00;100228.59;10072789;28;20035;-72
2024/04/04 15:44:02;;;;;;;5.28;1.40;;;;;;;10.66;100.00;100239.88;10082324;28;20043;-73
2024/04/04 15:48:58;;;;;;;3.15;1.45;;;;;;;10.86;100.00;100244.59;10091724;28;20499;-71
2024/04/04 15:53:53;;;;;;;2.78;1.48;;;;;;;11.88;100.00;100245.25;10067762;28;20105;-71
2024/04/04 15:58:49;;;;;;;5.85;1.80;;;;;;;13.05;100.00;100252.94;10067238;28;20039;-74
2024/04/04 16:03:46;;;;;;;3.30;1.80;;;;;;;13.75;100.00;100229.06;10059725;28;20051;-71
2024/04/04 16:08:43;;;;;;;4.45;2.60;;;;;;;13.76;100.00;100214.19;10070115;28;20082;-71
2024/04/04 16:13:39;;;;;;;4.43;2.35;;;;;;;14.27;100.00;100206.06;10083292;28;20575;-70
2024/04/04 16:18:34;;;;;;;4.38;2.90;;;;;;;14.20;100.00;100233.38;10066187;28;20036;-71
2024/04/04 16:23:30;;;;;;;7.32;3.47;;;;;;;13.90;100.00;100231.03;10068095;28;20122;-71
2024/04/04 16:28:27;;;;;;;7.13;3.83;;;;;;;12.84;100.00;100241.31;10077813;28;20067;-70
2024/04/04 16:33:23;;;;;;;7.25;3.45;;;;;;;12.36;100.00;100268.38;10071243;28;20066;-71
2024/04/04 16:38:20;;;;;;;4.28;2.90;;;;;;;12.12;100.00;100284.81;10069801;28;20079;-73
2024/04/04 16:43:15;;;;;;;6.55;2.78;;;;;;;11.98;100.00;100282.34;10069700;28;20074;-71
2024/04/04 16:48:11;;;;;;;7.07;3.08;;;;;;;11.92;100.00;100300.94;10065391;28;20051;-72
2024/04/04 16:53:06;;;;;;;4.15;2.50;;;;;;;11.83;100.00;100311.13;10064271;28;20039;-72
2024/04/04 16:58:02;;;;;;;4.95;2.60;;;;;;;11.74;100.00;100316.72;10072394;28;20035;-72
2024/04/04 17:02:58;;;;;;;7.68;3.33;;;;;;;11.72;100.00;100323.63;10066291;28;20126;-73
2024/04/04 17:07:53;;;;;;;9.13;2.70;;;;;;;11.50;100.00;100363.13;10074353;28;20067;-72
2024/04/04 17:12:52;;;;;;;4.50;1.50;;;;;;;10.87;100.00;100393.88;10087554;28;20047;-72
2024/04/04 17:17:50;;;;;;;8.77;1.83;;;;;;;10.76;100.00;100397.28;10088414;28;20086;-71
2024/04/04 17:22:47;;;;;;;5.07;2.25;;;;;;;10.63;100.00;100410.00;10054840;28;20059;-72
2024/04/04 17:27:44;;;;;;;3.75;1.50;;;;;;;10.55;100.00;100419.06;10063619;28;20075;-72
2024/04/04 17:32:40;;;;;;;5.70;1.80;;;;;;;10.47;100.00;100423.41;10093214;28;20461;-72
2024/04/04 17:37:35;;;;;;;9.35;1.80;;;;;;;10.45;100.00;100436.59;10069254;28;20049;-72
2024/04/04 17:42:31;;;;;;;8.35;1.70;;;;;;;10.45;100.00;100453.78;10070521;28;20094;-72
2024/04/04 17:47:26;;;;;;;7.45;1.70;;;;;;;10.41;100.00;100457.50;10093963;28;20089;-74
2024/04/04 17:52:22;;;;;;;7.38;2.60;;;;;;;10.40;100.00;100477.78;10076818;28;20125;-72
2024/04/04 17:57:18;;;;;;;5.80;1.90;;;;;;;10.34;100.00;100479.84;10079005;28;20043;-72
2024/04/04 18:02:14;;;;;;;7.53;2.92;;;;;;;10.13;100.00;100490.56;10086451;28;20082;-72
2024/04/04 18:07:09;;;;;;;4.07;1.45;;;;;;;9.90;100.00;100503.56;10043514;28;20216;-73
2024/04/04 18:12:05;;;;;;;9.18;1.55;;;;;;;9.75;100.00;100501.25;10065952;28;20066;-73
2024/04/04 18:17:01;;;;;;;4.05;1.25;;;;;;;9.62;100.00;100497.53;10082721;28;20511;-73
2024/04/04 18:21:57;;;;;;;4.22;1.70;;;;;;;9.61;100.00;100501.41;10080719;28;20045;-72
2024/04/04 18:26:52;;;;;;;4.28;1.45;;;;;;;9.58;100.00;100502.03;10060153;28;20039;-73
2024/04/04 18:31:48;;;;;;;4.80;1.75;;;;;;;9.42;100.00;100493.44;10084488;28;20053;-72
2024/04/04 18:36:44;;;;;;;7.55;2.10;;;;;;;9.40;100.00;100510.16;10065013;28;20058;-72
2024/04/04 18:41:40;;;;;;;6.47;1.80;;;;;;;9.34;100.00;100525.06;10072361;28;20066;-73
2024/04/04 18:46:36;;;;;;;5.00;1.92;;;;;;;9.26;100.00;100528.56;10057230;28;20083;-73
2024/04/04 18:51:31;;;;;;;4.85;2.50;;;;;;;9.22;100.00;100549.41;10031040;28;20036;-73
2024/04/04 18:56:27;;;;;;;4.93;2.13;;;;;;;9.22;100.00;100565.75;10035603;28;20067;-73
2024/04/04 19:01:23;;;;;;;5.65;2.15;;;;;;;9.13;100.00;100570.34;10061166;28;20392;-72
2024/04/04 19:06:18;;;;;;;7.28;2.17;;;;;;;9.13;100.00;100581.25;10077534;28;20047;-73
2024/04/04 19:11:14;;;;;;;5.78;2.40;;;;;;;9.08;100.00;100590.38;10061758;28;20479;-73
2024/04/04 19:16:09;;;;;;;6.32;2.30;;;;;;;9.03;100.00;100602.22;10072715;28;20055;-72
2024/04/04 19:21:07;;;;;;;5.45;2.25;;;;;;;9.25;100.00;100608.78;10067596;28;20043;-73
2024/04/04 19:26:04;;;;;;;5.68;2.40;;;;;;;9.38;100.00;100612.56;10085294;28;20063;-73
2024/04/04 19:31:03;;;;;;;5.95;2.55;;;;;;;9.38;100.00;100618.81;10067893;28;20078;-73
2024/04/04 19:36:02;;;;;;;4.30;2.40;;;;;;;9.29;100.00;100615.22;10072648;28;20070;-73
2024/04/04 19:40:58;;;;;;;5.60;2.40;;;;;;;9.40;100.00;100638.41;10088206;28;20102;-72
2024/04/04 19:45:57;;;;;;;6.28;2.58;;;;;;;9.48;100.00;100651.28;10073360;28;20047;-73
2024/04/04 19:50:54;;;;;;;5.78;2.58;;;;;;;9.52;100.00;100646.03;10069251;28;20460;-74
2024/04/04 19:55:49;;;;;;;6.63;2.00;;;;;;;9.50;100.00;100647.47;10063533;28;21072;-72
2024/04/04 20:01:05;;;;;;;6.85;2.00;;;;;;;9.52;100.00;100650.69;10067773;28;20047;-73
2024/04/04 20:06:03;;;;;;;5.50;2.35;;;;;;;9.47;100.00;100655.16;10057647;28;20506;-72
2024/04/04 20:11:02;;;;;;;5.32;2.28;;;;;;;9.48;100.00;100656.75;10061195;28;20581;-72
2024/04/04 20:15:58;;;;;;;5.38;2.38;;;;;;;9.44;100.00;100666.66;10068072;28;20066;-72
2024/04/04 20:20:54;;;;;;;6.15;2.28;;;;;;;9.44;100.00;100677.59;10056708;28;20047;-72
2024/04/04 20:25:49;;;;;;;4.07;2.33;;;;;;;9.44;100.00;100688.50;10069356;28;20059;-73
2024/04/04 20:30:45;;;;;;;3.42;1.98;;;;;;;9.37;100.00;100677.22;10055943;28;20047;-72
2024/04/04 20:35:43;;;;;;;7.00;2.15;;;;;;;9.34;100.00;100691.50;10068677;28;20415;-74
2024/04/04 20:40:38;;;;;;;3.47;2.20;;;;;;;9.36;100.00;100697.44;10072800;28;20086;-73
2024/04/04 20:45:34;;;;;;;5.35;2.38;;;;;;;9.44;100.00;100695.88;10069030;28;20482;-71
2024/04/04 20:50:30;;;;;;;5.45;2.38;;;;;;;9.51;100.00;100698.19;10084991;28;20071;-71
2024/04/04 20:55:26;;;;;;;6.07;2.90;;;;;;;9.51;100.00;100703.66;10087500;28;20044;-73
2024/04/04 21:00:21;;;;;;;4.72;2.42;;;;;;;9.51;100.00;100711.84;10070816;28;20055;-73
2024/04/04 21:05:17;;;;;;;7.00;2.92;;;;;;;9.48;100.00;100713.25;10032084;28;20083;-71
2024/04/04 21:10:12;;;;;;;5.50;2.33;;;;;;;9.43;100.00;100707.94;10073240;28;20055;-71
2024/04/04 21:15:08;;;;;;;6.88;3.60;;;;;;;9.44;100.00;100707.59;10086511;28;20051;-71
2024/04/04 21:20:04;;;;;;;5.47;2.40;;;;;;;9.37;100.00;100704.50;10065942;28;20047;-71
2024/04/04 21:25:00;;;;;;;6.43;2.67;;;;;;;9.35;100.00;100717.69;10069438;28;20078;-72
2024/04/04 21:29:55;;;;;;;5.03;2.55;;;;;;;9.40;100.00;100724.91;10049726;28;20513;-72
2024/04/04 21:34:51;;;;;;;9.10;2.63;;;;;;;9.45;100.00;100733.81;10068885;28;20039;-72
2024/04/04 21:39:47;;;;;;;6.80;2.40;;;;;;;9.47;100.00;100739.75;10086475;28;20051;-74
2024/04/04 21:44:42;;;;;;;6.25;2.67;;;;;;;9.54;100.00;100757.59;10087240;28;20440;-72
2024/04/04 21:49:38;;;;;;;6.22;2.20;;;;;;;9.57;100.00;100755.06;10049383;28;20118;-72
2024/04/04 21:54:33;;;;;;;9.10;2.90;;;;;;;9.58;100.00;100755.88;10066683;28;20466;-73
2024/04/04 21:59:32;;;;;;;7.30;2.55;;;;;;;9.57;100.00;100766.00;10038233;28;20043;-74
2024/04/04 22:04:27;;;;;;;7.05;2.25;;;;;;;9.60;100.00;100765.38;10102352;28;20070;-72
2024/04/04 22:09:23;;;;;;;10.55;2.22;;;;;;;9.57;100.00;100762.47;10084276;28;20546;-71
2024/04/04 22:14:22;;;;;;;9.55;2.72;;;;;;;9.48;100.00;100773.31;10081634;28;20518;-71
2024/04/04 22:19:18;;;;;;;9.23;3.08;;;;;;;9.47;100.00;100791.63;10065729;28;20068;-72
2024/04/04 22:24:13;;;;;;;8.23;2.33;;;;;;;9.58;100.00;100807.75;10079124;28;20114;-71
2024/04/04 22:29:09;;;;;;;9.18;1.98;;;;;;;9.58;100.00;100807.75;10066307;28;20051;-72